sensor_id;sensor_type;location;lat;lon;timestamp;temperature;humidity
30385;DHT22;17181;51.002;4.096;2023-04-07T07:36:36;10.00;99.90
30385;DHT22;17181;51.002;4.096;2023-04-07T07:39:08;10.00;99.90
30385;DHT22;17181;51.002;4.096;2023-04-07T07:41:37;9.90;99.90
30385;DHT22;17181;51.002;4.096;2023-04-07T07:44:06;9.90;99.90
30385;DHT22;17181;51.002;4.096;2023-04-07T07:46:40;10.00;99.90
30385;DHT22;17181;51.002;4.096;2023-04-07T07:49:06;9.90;99.90
30385;DHT22;17181;51.002;4.096;2023-04-07T07:51:35;9.90;99.90
30385;DHT22;17181;51.002;4.096;2023-04-07T10:37:26;11.60;99.90
30385;DHT22;17181;51.002;4.096;2023-04-07T10:40:28;11.70;99.90
30385;DHT22;17181;51.002;4.096;2023-04-07T10:42:54;11.70;99.90
30385;DHT22;17181;51.002;4.096;2023-04-07T10:48:11;11.80;99.90
30385;DHT22;17181;51.002;4.096;2023-04-07T10:50:37;11.90;99.90
30385;DHT22;17181;51.002;4.096;2023-04-07T10:53:06;12.00;99.90
30385;DHT22;17181;51.002;4.096;2023-04-07T10:55:53;12.10;99.90
30385;DHT22;17181;51.002;4.096;2023-04-07T10:58:22;12.20;99.90
30385;DHT22;17181;51.002;4.096;2023-04-07T11:03:41;12.50;99.90
30385;DHT22;17181;51.002;4.096;2023-04-07T11:06:16;12.60;99.90
30385;DHT22;17181;51.002;4.096;2023-04-07T11:08:45;12.70;99.90
30385;DHT22;17181;51.002;4.096;2023-04-07T11:11:14;12.80;99.90
30385;DHT22;17181;51.002;4.096;2023-04-07T11:13:45;12.80;99.90
30385;DHT22;17181;51.002;4.096;2023-04-07T11:16:11;12.70;99.90
30385;DHT22;17181;51.002;4.096;2023-04-07T11:18:38;12.60;99.90
30385;DHT22;17181;51.002;4.096;2023-04-07T11:21:04;12.60;99.90
30385;DHT22;17181;51.002;4.096;2023-04-07T11:23:38;12.60;99.90
30385;DHT22;17181;51.002;4.096;2023-04-07T11:26:04;12.50;99.90
30385;DHT22;17181;51.002;4.096;2023-04-07T11:28:30;12.40;99.90
30385;DHT22;17181;51.002;4.096;2023-04-07T11:30:56;12.30;99.90
30385;DHT22;17181;51.002;4.096;2023-04-07T11:33:26;12.30;99.90
30385;DHT22;17181;51.002;4.096;2023-04-07T11:35:54;12.30;99.90
30385;DHT22;17181;51.002;4.096;2023-04-07T11:38:21;12.30;99.90
30385;DHT22;17181;51.002;4.096;2023-04-07T11:40:50;12.30;99.90
30385;DHT22;17181;51.002;4.096;2023-04-07T11:43:21;12.40;99.90
30385;DHT22;17181;51.002;4.096;2023-04-07T11:46:10;12.40;99.90
30385;DHT22;17181;51.002;4.096;2023-04-07T11:48:37;12.40;99.90
30385;DHT22;17181;51.002;4.096;2023-04-07T11:51:04;12.40;99.90
30385;DHT22;17181;51.002;4.096;2023-04-07T11:53:35;12.30;99.90
30385;DHT22;17181;51.002;4.096;2023-04-07T11:56:10;12.20;99.90
30385;DHT22;17181;51.002;4.096;2023-04-07T11:58:46;12.00;99.90
30385;DHT22;17181;51.002;4.096;2023-04-07T12:01:13;11.90;99.90
30385;DHT22;17181;51.002;4.096;2023-04-07T12:04:00;11.90;99.90
30385;DHT22;17181;51.002;4.096;2023-04-07T12:06:35;11.80;99.90
30385;DHT22;17181;51.002;4.096;2023-04-07T12:09:06;11.70;99.90
30385;DHT22;17181;51.002;4.096;2023-04-07T12:11:33;11.70;99.90
30385;DHT22;17181;51.002;4.096;2023-04-07T12:14:00;11.80;99.90
30385;DHT22;17181;51.002;4.096;2023-04-07T12:16:26;11.80;99.90
30385;DHT22;17181;51.002;4.096;2023-04-07T12:18:52;11.80;99.90
30385;DHT22;17181;51.002;4.096;2023-04-07T12:21:18;11.90;99.90
30385;DHT22;17181;51.002;4.096;2023-04-07T12:23:45;11.90;99.90
30385;DHT22;17181;51.002;4.096;2023-04-07T12:26:11;12.00;99.90
30385;DHT22;17181;51.002;4.096;2023-04-07T12:28:37;12.10;99.90
30385;DHT22;17181;51.002;4.096;2023-04-07T12:31:04;12.10;99.90
30385;DHT22;17181;51.002;4.096;2023-04-07T12:33:30;12.20;99.90
30385;DHT22;17181;51.002;4.096;2023-04-07T12:35:56;12.30;99.90
30385;DHT22;17181;51.002;4.096;2023-04-07T12:38:23;12.30;99.90
30385;DHT22;17181;51.002;4.096;2023-04-07T12:40:49;12.30;99.90
30385;DHT22;17181;51.002;4.096;2023-04-07T12:43:14;12.40;99.90
30385;DHT22;17181;51.002;4.096;2023-04-07T12:45:40;12.30;99.90
30385;DHT22;17181;51.002;4.096;2023-04-07T12:48:06;12.30;99.90
30385;DHT22;17181;51.002;4.096;2023-04-07T12:50:31;12.30;99.90
30385;DHT22;17181;51.002;4.096;2023-04-07T12:52:57;12.30;99.90
30385;DHT22;17181;51.002;4.096;2023-04-07T12:55:24;12.30;99.90
30385;DHT22;17181;51.002;4.096;2023-04-07T12:57:50;12.20;99.90
30385;DHT22;17181;51.002;4.096;2023-04-07T13:00:16;12.10;99.90
30385;DHT22;17181;51.002;4.096;2023-04-07T13:02:42;12.10;99.90
30385;DHT22;17181;51.002;4.096;2023-04-07T13:05:08;12.00;99.90
30385;DHT22;17181;51.002;4.096;2023-04-07T13:07:34;11.90;99.90
30385;DHT22;17181;51.002;4.096;2023-04-07T13:10:01;11.80;99.90
30385;DHT22;17181;51.002;4.096;2023-04-07T13:12:27;11.80;99.90
30385;DHT22;17181;51.002;4.096;2023-04-07T13:14:53;11.70;99.90
30385;DHT22;17181;51.002;4.096;2023-04-07T13:17:19;11.70;99.90
30385;DHT22;17181;51.002;4.096;2023-04-07T13:19:45;11.70;99.90
30385;DHT22;17181;51.002;4.096;2023-04-07T13:22:12;11.70;99.90
30385;DHT22;17181;51.002;4.096;2023-04-07T13:24:38;11.80;99.90
30385;DHT22;17181;51.002;4.096;2023-04-07T13:27:04;11.90;99.90
30385;DHT22;17181;51.002;4.096;2023-04-07T13:29:31;11.90;99.90
30385;DHT22;17181;51.002;4.096;2023-04-07T13:32:07;12.00;99.90
30385;DHT22;17181;51.002;4.096;2023-04-07T13:34:34;12.10;99.90
30385;DHT22;17181;51.002;4.096;2023-04-07T13:37:01;12.10;99.90
30385;DHT22;17181;51.002;4.096;2023-04-07T13:39:28;12.10;99.90
30385;DHT22;17181;51.002;4.096;2023-04-07T13:41:53;12.10;99.90
30385;DHT22;17181;51.002;4.096;2023-04-07T13:44:20;12.10;99.90
30385;DHT22;17181;51.002;4.096;2023-04-07T13:46:47;12.10;99.90
30385;DHT22;17181;51.002;4.096;2023-04-07T13:49:13;12.00;99.90
30385;DHT22;17181;51.002;4.096;2023-04-07T13:51:39;12.10;99.90
30385;DHT22;17181;51.002;4.096;2023-04-07T13:54:07;12.10;99.90
30385;DHT22;17181;51.002;4.096;2023-04-07T13:56:33;12.10;99.90
30385;DHT22;17181;51.002;4.096;2023-04-07T13:59:04;12.20;99.90
30385;DHT22;17181;51.002;4.096;2023-04-07T14:01:31;12.10;99.90
30385;DHT22;17181;51.002;4.096;2023-04-07T14:03:58;12.10;99.90
30385;DHT22;17181;51.002;4.096;2023-04-07T14:06:24;12.10;99.90
30385;DHT22;17181;51.002;4.096;2023-04-07T14:08:51;12.10;99.90
30385;DHT22;17181;51.002;4.096;2023-04-07T14:11:21;12.00;99.90
30385;DHT22;17181;51.002;4.096;2023-04-07T14:13:47;12.00;99.90
30385;DHT22;17181;51.002;4.096;2023-04-07T14:16:14;12.00;99.90
30385;DHT22;17181;51.002;4.096;2023-04-07T14:18:39;12.00;99.90
30385;DHT22;17181;51.002;4.096;2023-04-07T14:21:05;11.90;99.90
30385;DHT22;17181;51.002;4.096;2023-04-07T14:23:31;11.80;99.90
30385;DHT22;17181;51.002;4.096;2023-04-07T14:25:57;11.80;99.90
30385;DHT22;17181;51.002;4.096;2023-04-07T14:28:23;11.70;99.90
30385;DHT22;17181;51.002;4.096;2023-04-07T14:30:49;11.60;99.90
30385;DHT22;17181;51.002;4.096;2023-04-07T14:33:15;11.70;99.90
30385;DHT22;17181;51.002;4.096;2023-04-07T14:35:44;11.70;99.90
30385;DHT22;17181;51.002;4.096;2023-04-07T14:38:10;11.70;99.90
30385;DHT22;17181;51.002;4.096;2023-04-07T14:40:35;11.60;99.90
30385;DHT22;17181;51.002;4.096;2023-04-07T14:43:01;11.70;99.90
30385;DHT22;17181;51.002;4.096;2023-04-07T14:45:28;11.70;99.90
30385;DHT22;17181;51.002;4.096;2023-04-07T14:47:54;11.70;99.90
30385;DHT22;17181;51.002;4.096;2023-04-07T14:50:20;11.70;99.90
30385;DHT22;17181;51.002;4.096;2023-04-07T14:52:46;11.70;99.90
30385;DHT22;17181;51.002;4.096;2023-04-07T14:55:11;11.70;99.90
30385;DHT22;17181;51.002;4.096;2023-04-07T14:57:37;11.60;99.90
30385;DHT22;17181;51.002;4.096;2023-04-07T15:00:04;11.60;99.90
30385;DHT22;17181;51.002;4.096;2023-04-07T15:02:32;11.60;99.90
30385;DHT22;17181;51.002;4.096;2023-04-07T15:04:58;11.50;99.90
30385;DHT22;17181;51.002;4.096;2023-04-07T15:07:24;11.50;99.90
30385;DHT22;17181;51.002;4.096;2023-04-07T15:09:50;11.50;99.90
30385;DHT22;17181;51.002;4.096;2023-04-07T15:12:16;11.50;99.90
30385;DHT22;17181;51.002;4.096;2023-04-07T15:14:43;11.50;99.90
30385;DHT22;17181;51.002;4.096;2023-04-07T15:17:09;11.50;99.90
30385;DHT22;17181;51.002;4.096;2023-04-07T15:19:34;11.60;99.90
30385;DHT22;17181;51.002;4.096;2023-04-07T15:22:00;11.50;99.90
30385;DHT22;17181;51.002;4.096;2023-04-07T15:24:26;11.50;99.90
30385;DHT22;17181;51.002;4.096;2023-04-07T15:26:52;11.50;99.90
30385;DHT22;17181;51.002;4.096;2023-04-07T15:29:17;11.50;99.90
30385;DHT22;17181;51.002;4.096;2023-04-07T15:31:43;11.50;99.90
30385;DHT22;17181;51.002;4.096;2023-04-07T15:34:09;11.40;99.90
30385;DHT22;17181;51.002;4.096;2023-04-07T15:36:35;11.40;99.90
30385;DHT22;17181;51.002;4.096;2023-04-07T15:39:07;11.40;99.90
30385;DHT22;17181;51.002;4.096;2023-04-07T15:41:32;11.40;99.90
30385;DHT22;17181;51.002;4.096;2023-04-07T15:43:59;11.40;99.90
30385;DHT22;17181;51.002;4.096;2023-04-07T15:46:25;11.30;99.90
30385;DHT22;17181;51.002;4.096;2023-04-07T15:48:51;11.30;99.90
30385;DHT22;17181;51.002;4.096;2023-04-07T15:51:17;11.30;99.90
30385;DHT22;17181;51.002;4.096;2023-04-07T15:53:43;11.30;99.90
30385;DHT22;17181;51.002;4.096;2023-04-07T15:56:09;11.20;99.90
30385;DHT22;17181;51.002;4.096;2023-04-07T15:58:35;11.20;99.90
30385;DHT22;17181;51.002;4.096;2023-04-07T16:01:02;11.20;99.90
30385;DHT22;17181;51.002;4.096;2023-04-07T16:03:28;11.10;99.90
30385;DHT22;17181;51.002;4.096;2023-04-07T16:05:55;11.00;99.90
30385;DHT22;17181;51.002;4.096;2023-04-07T16:08:21;11.00;99.90
30385;DHT22;17181;51.002;4.096;2023-04-07T16:10:46;10.90;99.90
30385;DHT22;17181;51.002;4.096;2023-04-07T16:13:12;10.90;99.90
30385;DHT22;17181;51.002;4.096;2023-04-07T16:15:38;10.90;99.90
30385;DHT22;17181;51.002;4.096;2023-04-07T16:18:05;10.90;99.90
30385;DHT22;17181;51.002;4.096;2023-04-07T16:20:31;10.90;99.90
30385;DHT22;17181;51.002;4.096;2023-04-07T16:22:57;10.90;99.90
30385;DHT22;17181;51.002;4.096;2023-04-07T16:25:22;10.90;99.90
30385;DHT22;17181;51.002;4.096;2023-04-07T16:27:51;10.90;99.90
30385;DHT22;17181;51.002;4.096;2023-04-07T16:30:18;10.90;99.90
30385;DHT22;17181;51.002;4.096;2023-04-07T16:32:44;10.90;99.90
30385;DHT22;17181;51.002;4.096;2023-04-07T16:35:14;10.90;99.90
30385;DHT22;17181;51.002;4.096;2023-04-07T16:37:41;11.00;99.90
30385;DHT22;17181;51.002;4.096;2023-04-07T16:40:08;11.00;99.90
30385;DHT22;17181;51.002;4.096;2023-04-07T16:42:34;11.00;99.90
30385;DHT22;17181;51.002;4.096;2023-04-07T16:45:01;11.00;99.90
30385;DHT22;17181;51.002;4.096;2023-04-07T16:47:28;11.00;99.90
30385;DHT22;17181;51.002;4.096;2023-04-07T16:49:54;11.00;99.90
30385;DHT22;17181;51.002;4.096;2023-04-07T16:52:20;10.90;99.90
30385;DHT22;17181;51.002;4.096;2023-04-07T16:54:46;10.90;99.90
30385;DHT22;17181;51.002;4.096;2023-04-07T16:57:12;10.90;99.90
30385;DHT22;17181;51.002;4.096;2023-04-07T16:59:38;10.90;99.90
30385;DHT22;17181;51.002;4.096;2023-04-07T17:02:12;10.80;99.90
30385;DHT22;17181;51.002;4.096;2023-04-07T17:04:41;10.90;99.90
30385;DHT22;17181;51.002;4.096;2023-04-07T17:07:07;10.80;99.90
30385;DHT22;17181;51.002;4.096;2023-04-07T17:09:33;10.80;99.90
30385;DHT22;17181;51.002;4.096;2023-04-07T17:12:00;10.80;99.90
30385;DHT22;17181;51.002;4.096;2023-04-07T17:14:27;10.80;99.90
30385;DHT22;17181;51.002;4.096;2023-04-07T17:16:53;10.80;99.90
30385;DHT22;17181;51.002;4.096;2023-04-07T17:19:18;10.80;99.90
30385;DHT22;17181;51.002;4.096;2023-04-07T17:21:45;10.80;99.90
30385;DHT22;17181;51.002;4.096;2023-04-07T17:24:11;10.80;99.90
30385;DHT22;17181;51.002;4.096;2023-04-07T17:26:40;10.80;99.90
30385;DHT22;17181;51.002;4.096;2023-04-07T17:29:06;10.80;99.90
30385;DHT22;17181;51.002;4.096;2023-04-07T17:31:32;10.80;99.90
30385;DHT22;17181;51.002;4.096;2023-04-07T17:34:02;10.70;99.90
30385;DHT22;17181;51.002;4.096;2023-04-07T17:36:32;10.70;99.90
30385;DHT22;17181;51.002;4.096;2023-04-07T17:39:01;10.70;99.90
30385;DHT22;17181;51.002;4.096;2023-04-07T17:41:28;10.70;99.90
30385;DHT22;17181;51.002;4.096;2023-04-07T17:43:54;10.70;99.90
30385;DHT22;17181;51.002;4.096;2023-04-07T17:46:23;10.80;99.90
30385;DHT22;17181;51.002;4.096;2023-04-07T17:48:49;10.80;99.90
30385;DHT22;17181;51.002;4.096;2023-04-07T17:51:16;10.80;99.90
30385;DHT22;17181;51.002;4.096;2023-04-07T17:53:42;10.80;99.90
30385;DHT22;17181;51.002;4.096;2023-04-07T17:56:08;10.80;99.90
30385;DHT22;17181;51.002;4.096;2023-04-07T17:58:33;10.80;99.90
30385;DHT22;17181;51.002;4.096;2023-04-07T18:00:59;10.80;99.90
30385;DHT22;17181;51.002;4.096;2023-04-07T18:03:25;10.70;99.90
30385;DHT22;17181;51.002;4.096;2023-04-07T18:05:51;10.70;99.90
30385;DHT22;17181;51.002;4.096;2023-04-07T18:08:16;10.70;99.90
30385;DHT22;17181;51.002;4.096;2023-04-07T18:10:43;10.70;99.90
30385;DHT22;17181;51.002;4.096;2023-04-07T18:13:08;10.70;99.90
30385;DHT22;17181;51.002;4.096;2023-04-07T18:15:34;10.70;99.90
30385;DHT22;17181;51.002;4.096;2023-04-07T18:18:00;10.60;99.90
30385;DHT22;17181;51.002;4.096;2023-04-07T18:20:26;10.60;99.90
30385;DHT22;17181;51.002;4.096;2023-04-07T18:22:52;10.60;99.90
30385;DHT22;17181;51.002;4.096;2023-04-07T18:25:20;10.50;99.90
30385;DHT22;17181;51.002;4.096;2023-04-07T18:27:47;10.50;99.90
30385;DHT22;17181;51.002;4.096;2023-04-07T18:30:12;10.50;99.90
30385;DHT22;17181;51.002;4.096;2023-04-07T18:32:38;10.50;99.90
30385;DHT22;17181;51.002;4.096;2023-04-07T18:35:05;10.50;99.90
30385;DHT22;17181;51.002;4.096;2023-04-07T18:37:31;10.50;99.90
30385;DHT22;17181;51.002;4.096;2023-04-07T18:39:57;10.50;99.90
30385;DHT22;17181;51.002;4.096;2023-04-07T18:42:22;10.40;99.90
30385;DHT22;17181;51.002;4.096;2023-04-07T18:44:48;10.40;99.90
30385;DHT22;17181;51.002;4.096;2023-04-07T18:47:14;10.40;99.90
30385;DHT22;17181;51.002;4.096;2023-04-07T18:49:40;10.40;99.90
30385;DHT22;17181;51.002;4.096;2023-04-07T18:52:06;10.40;99.90
30385;DHT22;17181;51.002;4.096;2023-04-07T18:54:32;10.40;99.90
30385;DHT22;17181;51.002;4.096;2023-04-07T18:56:58;10.40;99.90
30385;DHT22;17181;51.002;4.096;2023-04-07T18:59:24;10.40;99.90
30385;DHT22;17181;51.002;4.096;2023-04-07T19:01:51;10.30;99.90
30385;DHT22;17181;51.002;4.096;2023-04-07T19:04:17;10.30;99.90
30385;DHT22;17181;51.002;4.096;2023-04-07T19:06:49;10.40;99.90
30385;DHT22;17181;51.002;4.096;2023-04-07T19:09:14;10.30;99.90
30385;DHT22;17181;51.002;4.096;2023-04-07T19:11:40;10.30;99.90
30385;DHT22;17181;51.002;4.096;2023-04-07T19:14:06;10.30;99.90
30385;DHT22;17181;51.002;4.096;2023-04-07T19:16:33;10.40;99.90
30385;DHT22;17181;51.002;4.096;2023-04-07T19:18:59;10.30;99.90
30385;DHT22;17181;51.002;4.096;2023-04-07T19:21:25;10.30;99.90
30385;DHT22;17181;51.002;4.096;2023-04-07T19:23:52;10.40;99.90
30385;DHT22;17181;51.002;4.096;2023-04-07T19:26:21;10.30;99.90
30385;DHT22;17181;51.002;4.096;2023-04-07T19:28:47;10.30;99.90
30385;DHT22;17181;51.002;4.096;2023-04-07T19:31:13;10.40;99.90
30385;DHT22;17181;51.002;4.096;2023-04-07T19:33:39;10.40;99.90
30385;DHT22;17181;51.002;4.096;2023-04-07T19:36:06;10.40;99.90
30385;DHT22;17181;51.002;4.096;2023-04-07T19:38:31;10.40;99.90
30385;DHT22;17181;51.002;4.096;2023-04-07T19:40:57;10.40;99.90
30385;DHT22;17181;51.002;4.096;2023-04-07T19:43:23;10.40;99.90
30385;DHT22;17181;51.002;4.096;2023-04-07T19:45:48;10.40;99.90
30385;DHT22;17181;51.002;4.096;2023-04-07T19:48:15;10.40;99.90
30385;DHT22;17181;51.002;4.096;2023-04-07T19:50:42;10.40;99.90
30385;DHT22;17181;51.002;4.096;2023-04-07T19:53:11;10.30;99.90
30385;DHT22;17181;51.002;4.096;2023-04-07T19:55:44;10.30;99.90
30385;DHT22;17181;51.002;4.096;2023-04-07T19:58:11;10.40;99.90
30385;DHT22;17181;51.002;4.096;2023-04-07T20:00:38;10.30;99.90
30385;DHT22;17181;51.002;4.096;2023-04-07T20:03:04;10.30;99.90
30385;DHT22;17181;51.002;4.096;2023-04-07T20:05:31;10.30;99.90
30385;DHT22;17181;51.002;4.096;2023-04-07T20:07:57;10.30;99.90
30385;DHT22;17181;51.002;4.096;2023-04-07T20:10:23;10.30;99.90
30385;DHT22;17181;51.002;4.096;2023-04-07T20:12:49;10.20;99.90
30385;DHT22;17181;51.002;4.096;2023-04-07T20:15:14;10.30;99.90
30385;DHT22;17181;51.002;4.096;2023-04-07T20:17:41;10.20;99.90
30385;DHT22;17181;51.002;4.096;2023-04-07T20:20:07;10.30;99.90
30385;DHT22;17181;51.002;4.096;2023-04-07T20:22:33;10.30;99.90
30385;DHT22;17181;51.002;4.096;2023-04-07T20:25:00;10.30;99.90
30385;DHT22;17181;51.002;4.096;2023-04-07T20:27:33;10.20;99.90
30385;DHT22;17181;51.002;4.096;2023-04-07T20:29:59;10.20;99.90
30385;DHT22;17181;51.002;4.096;2023-04-07T20:32:26;10.30;99.90
30385;DHT22;17181;51.002;4.096;2023-04-07T20:34:51;10.30;99.90
30385;DHT22;17181;51.002;4.096;2023-04-07T20:37:18;10.20;99.90
30385;DHT22;17181;51.002;4.096;2023-04-07T20:39:45;10.30;99.90
30385;DHT22;17181;51.002;4.096;2023-04-07T20:42:11;10.30;99.90
30385;DHT22;17181;51.002;4.096;2023-04-07T20:44:37;10.30;99.90
30385;DHT22;17181;51.002;4.096;2023-04-07T20:47:10;10.30;99.90
30385;DHT22;17181;51.002;4.096;2023-04-07T20:49:37;10.30;99.90
30385;DHT22;17181;51.002;4.096;2023-04-07T20:52:04;10.30;99.90
30385;DHT22;17181;51.002;4.096;2023-04-07T20:54:30;10.30;99.90
30385;DHT22;17181;51.002;4.096;2023-04-07T20:56:56;10.30;99.90
30385;DHT22;17181;51.002;4.096;2023-04-07T20:59:22;10.30;99.90
30385;DHT22;17181;51.002;4.096;2023-04-07T21:01:48;10.30;99.90
30385;DHT22;17181;51.002;4.096;2023-04-07T21:04:13;10.30;99.90
30385;DHT22;17181;51.002;4.096;2023-04-07T21:06:39;10.30;99.90
30385;DHT22;17181;51.002;4.096;2023-04-07T21:09:07;10.30;99.90
30385;DHT22;17181;51.002;4.096;2023-04-07T21:11:34;10.30;99.90
30385;DHT22;17181;51.002;4.096;2023-04-07T21:14:00;10.30;99.90
30385;DHT22;17181;51.002;4.096;2023-04-07T21:16:26;10.30;99.90
30385;DHT22;17181;51.002;4.096;2023-04-07T21:18:52;10.30;99.90
30385;DHT22;17181;51.002;4.096;2023-04-07T21:21:18;10.30;99.90
30385;DHT22;17181;51.002;4.096;2023-04-07T21:23:43;10.30;99.90
30385;DHT22;17181;51.002;4.096;2023-04-07T21:26:09;10.30;99.90
30385;DHT22;17181;51.002;4.096;2023-04-07T21:28:35;10.30;99.90
30385;DHT22;17181;51.002;4.096;2023-04-07T21:31:01;10.30;99.90
30385;DHT22;17181;51.002;4.096;2023-04-07T21:33:28;10.30;99.90
30385;DHT22;17181;51.002;4.096;2023-04-07T21:35:54;10.30;99.90
30385;DHT22;17181;51.002;4.096;2023-04-07T21:38:19;10.30;99.90
30385;DHT22;17181;51.002;4.096;2023-04-07T21:40:45;10.30;99.90
30385;DHT22;17181;51.002;4.096;2023-04-07T21:43:11;10.30;99.90
30385;DHT22;17181;51.002;4.096;2023-04-07T21:45:37;10.30;99.90
30385;DHT22;17181;51.002;4.096;2023-04-07T21:48:03;10.30;99.90
30385;DHT22;17181;51.002;4.096;2023-04-07T21:50:29;10.30;99.90
30385;DHT22;17181;51.002;4.096;2023-04-07T21:52:55;10.20;99.90
30385;DHT22;17181;51.002;4.096;2023-04-07T21:55:21;10.30;99.90
30385;DHT22;17181;51.002;4.096;2023-04-07T21:57:48;10.20;99.90
30385;DHT22;17181;51.002;4.096;2023-04-07T22:00:14;10.30;99.90
30385;DHT22;17181;51.002;4.096;2023-04-07T22:02:41;10.20;99.90
30385;DHT22;17181;51.002;4.096;2023-04-07T22:05:08;10.20;99.90
30385;DHT22;17181;51.002;4.096;2023-04-07T22:07:34;10.20;99.90
30385;DHT22;17181;51.002;4.096;2023-04-07T22:10:00;10.20;99.90
30385;DHT22;17181;51.002;4.096;2023-04-07T22:12:26;10.20;99.90
30385;DHT22;17181;51.002;4.096;2023-04-07T22:14:52;10.20;99.90
30385;DHT22;17181;51.002;4.096;2023-04-07T22:17:17;10.20;99.90
30385;DHT22;17181;51.002;4.096;2023-04-07T22:19:43;10.20;99.90
30385;DHT22;17181;51.002;4.096;2023-04-07T22:22:09;10.20;99.90
30385;DHT22;17181;51.002;4.096;2023-04-07T22:24:34;10.20;99.90
30385;DHT22;17181;51.002;4.096;2023-04-07T22:27:00;10.30;99.90
30385;DHT22;17181;51.002;4.096;2023-04-07T22:29:27;10.20;99.90
30385;DHT22;17181;51.002;4.096;2023-04-07T22:31:52;10.30;99.90
30385;DHT22;17181;51.002;4.096;2023-04-07T22:34:18;10.30;99.90
30385;DHT22;17181;51.002;4.096;2023-04-07T22:36:44;10.30;99.90
30385;DHT22;17181;51.002;4.096;2023-04-07T22:39:10;10.30;99.90
30385;DHT22;17181;51.002;4.096;2023-04-07T22:41:36;10.30;99.90
30385;DHT22;17181;51.002;4.096;2023-04-07T22:44:02;10.30;99.90
30385;DHT22;17181;51.002;4.096;2023-04-07T22:46:27;10.30;99.90
30385;DHT22;17181;51.002;4.096;2023-04-07T22:48:53;10.20;99.90
30385;DHT22;17181;51.002;4.096;2023-04-07T22:51:19;10.30;99.90
30385;DHT22;17181;51.002;4.096;2023-04-07T22:53:45;10.20;99.90
30385;DHT22;17181;51.002;4.096;2023-04-07T22:56:11;10.20;99.90
30385;DHT22;17181;51.002;4.096;2023-04-07T22:58:37;10.20;99.90
30385;DHT22;17181;51.002;4.096;2023-04-07T23:01:02;10.20;99.90
30385;DHT22;17181;51.002;4.096;2023-04-07T23:03:28;10.20;99.90
30385;DHT22;17181;51.002;4.096;2023-04-07T23:05:54;10.20;99.90
30385;DHT22;17181;51.002;4.096;2023-04-07T23:08:20;10.20;99.90
30385;DHT22;17181;51.002;4.096;2023-04-07T23:10:46;10.20;99.90
30385;DHT22;17181;51.002;4.096;2023-04-07T23:13:11;10.20;99.90
30385;DHT22;17181;51.002;4.096;2023-04-07T23:15:39;10.10;99.90
30385;DHT22;17181;51.002;4.096;2023-04-07T23:18:05;10.10;99.90
30385;DHT22;17181;51.002;4.096;2023-04-07T23:20:31;10.20;99.90
30385;DHT22;17181;51.002;4.096;2023-04-07T23:22:57;10.10;99.90
30385;DHT22;17181;51.002;4.096;2023-04-07T23:25:22;10.10;99.90
30385;DHT22;17181;51.002;4.096;2023-04-07T23:27:48;10.10;99.90
30385;DHT22;17181;51.002;4.096;2023-04-07T23:30:14;10.10;99.90
30385;DHT22;17181;51.002;4.096;2023-04-07T23:32:40;10.10;99.90
30385;DHT22;17181;51.002;4.096;2023-04-07T23:35:07;10.10;99.90
30385;DHT22;17181;51.002;4.096;2023-04-07T23:37:33;10.10;99.90
30385;DHT22;17181;51.002;4.096;2023-04-07T23:39:58;10.10;99.90
30385;DHT22;17181;51.002;4.096;2023-04-07T23:42:24;10.10;99.90
30385;DHT22;17181;51.002;4.096;2023-04-07T23:44:50;10.10;99.90
30385;DHT22;17181;51.002;4.096;2023-04-07T23:47:16;10.10;99.90
30385;DHT22;17181;51.002;4.096;2023-04-07T23:49:41;10.10;99.90
30385;DHT22;17181;51.002;4.096;2023-04-07T23:52:08;10.20;99.90
30385;DHT22;17181;51.002;4.096;2023-04-07T23:54:34;10.20;99.90
30385;DHT22;17181;51.002;4.096;2023-04-07T23:57:00;10.20;99.90
30385;DHT22;17181;51.002;4.096;2023-04-07T23:59:26;10.10;99.90
